Time;durP1;ratioP1;P1;durP2;ratioP2;P2;SDS_P1;SDS_P2;PMS_P1;PMS_P2;Temp;Humidity;BMP_temperature;BMP_pressure;BME280_temperature;BME280_humidity;BME280_pressure;Samples;Min_cycle;Max_cycle;Signal;HPM_P1;HPM_P2
2022/03/21 00:01:57;;;;;;;38.67;18.97;;;;;;;5.49;69.79;102786.19;7382852;19;20442;-53
2022/03/21 00:04:27;;;;;;;23.43;11.30;;;;;;;5.36;66.93;102783.22;7390789;19;20415;-51
2022/03/21 00:06:56;;;;;;;19.07;11.37;;;;;;;5.36;66.74;102778.09;7389602;19;20431;-54
2022/03/21 00:09:26;;;;;;;44.40;21.43;;;;;;;5.39;70.07;102781.84;7390114;19;20769;-53
2022/03/21 00:11:55;;;;;;;19.40;11.00;;;;;;;5.39;68.13;102786.09;7381109;19;20430;-50
2022/03/21 00:14:28;;;;;;;21.40;11.93;;;;;;;5.32;68.61;102784.56;7390672;19;20767;-55
2022/03/21 00:16:58;;;;;;;22.63;11.93;;;;;;;5.37;67.77;102778.25;7386619;19;20768;-53
2022/03/21 00:19:28;;;;;;;20.73;10.60;;;;;;;5.33;67.76;102782.94;7390609;19;20387;-54
2022/03/21 00:21:57;;;;;;;24.07;12.80;;;;;;;5.30;69.64;102780.06;7385464;19;20426;-53
2022/03/21 00:24:27;;;;;;;24.10;10.80;;;;;;;5.26;68.86;102784.00;7390261;19;20395;-53
2022/03/21 00:26:56;;;;;;;22.77;11.60;;;;;;;5.33;69.85;102782.94;7384122;19;20411;-53
2022/03/21 00:29:28;;;;;;;21.13;9.97;;;;;;;5.31;70.09;102793.03;7387674;19;20728;-52
2022/03/21 00:31:58;;;;;;;21.60;11.90;;;;;;;5.32;71.02;102797.38;7387593;19;20451;-49
2022/03/21 00:34:27;;;;;;;21.00;10.60;;;;;;;5.32;69.77;102799.06;7390577;19;20415;-51
2022/03/21 00:36:57;;;;;;;20.30;10.30;;;;;;;5.34;71.57;102807.78;7386621;19;20411;-50
2022/03/21 00:39:26;;;;;;;20.70;11.43;;;;;;;5.26;69.63;102800.25;7389902;19;20723;-54
2022/03/21 00:41:56;;;;;;;25.90;11.90;;;;;;;5.18;70.23;102798.59;7383708;19;20466;-52
2022/03/21 00:44:28;;;;;;;18.33;10.43;;;;;;;5.23;69.89;102796.50;7393911;19;20427;-52
2022/03/21 00:46:58;;;;;;;23.70;11.60;;;;;;;5.21;71.42;102801.47;7383235;19;20771;-53
2022/03/21 00:49:27;;;;;;;23.87;12.90;;;;;;;5.11;71.42;102798.78;7388547;19;20392;-53
2022/03/21 00:51:57;;;;;;;22.63;10.97;;;;;;;5.12;72.29;102800.56;7382091;19;20482;-51
2022/03/21 00:54:26;;;;;;;21.77;11.50;;;;;;;5.14;70.47;102797.41;7390256;19;20396;-52
2022/03/21 00:56:56;;;;;;;24.53;11.37;;;;;;;5.11;72.90;102809.00;7385642;19;20948;-53
2022/03/21 00:59:28;;;;;;;21.83;11.13;;;;;;;5.06;71.14;102810.22;7389400;19;20389;-47
2022/03/21 01:01:57;;;;;;;22.77;12.37;;;;;;;5.04;72.28;102810.09;7384195;19;20423;-49
2022/03/21 01:04:27;;;;;;;19.70;11.50;;;;;;;5.06;73.74;102811.13;7389715;19;20420;-52
2022/03/21 01:06:57;;;;;;;20.87;12.30;;;;;;;5.05;72.70;102803.28;7383781;19;20756;-56
2022/03/21 01:09:27;;;;;;;19.60;10.50;;;;;;;5.10;73.97;102802.09;7392816;19;20390;-49
2022/03/21 01:11:56;;;;;;;22.27;12.10;;;;;;;5.00;72.72;102802.84;7385250;19;21269;-50
2022/03/21 01:14:28;;;;;;;25.53;13.33;;;;;;;4.93;73.34;102803.00;7389351;19;20415;-50
2022/03/21 01:16:58;;;;;;;22.07;12.53;;;;;;;4.92;73.71;102801.22;7385083;19;20407;-49
2022/03/21 01:19:30;;;;;;;25.60;11.60;;;;;;;4.84;73.87;102798.81;7389767;19;20392;-51
2022/03/21 01:22:00;;;;;;;20.30;11.20;;;;;;;4.73;73.43;102795.19;7385854;19;20770;-54
2022/03/21 01:24:29;;;;;;;20.50;10.97;;;;;;;4.77;74.46;102798.94;7389076;19;20730;-56
2022/03/21 01:26:59;;;;;;;26.43;16.00;;;;;;;4.81;75.59;102797.59;7386372;19;20426;-52
2022/03/21 01:29:31;;;;;;;32.73;18.90;;;;;;;4.88;78.70;102805.13;7389478;19;20379;-51
2022/03/21 01:32:00;;;;;;;28.53;14.50;;;;;;;4.81;75.63;102808.72;7390564;19;20462;-55
2022/03/21 01:34:30;;;;;;;20.80;11.30;;;;;;;4.85;75.12;102820.16;7391479;19;20418;-56
2022/03/21 01:37:00;;;;;;;21.97;11.63;;;;;;;4.79;75.42;102811.88;7386995;19;20418;-49
2022/03/21 01:39:34;;;;;;;21.70;11.40;;;;;;;4.82;78.07;102810.53;7391409;19;20395;-53
2022/03/21 01:42:04;;;;;;;21.40;11.60;;;;;;;4.67;76.16;102809.91;7395978;19;20419;-55
2022/03/21 01:44:36;;;;;;;23.53;13.60;;;;;;;4.67;77.06;102804.81;7398724;19;20415;-52
2022/03/21 01:47:07;;;;;;;26.83;14.07;;;;;;;4.72;77.15;102807.84;7397851;19;20411;-54
2022/03/21 01:49:36;;;;;;;26.30;13.30;;;;;;;4.58;77.47;102798.78;7390890;19;20400;-56
2022/03/21 01:52:08;;;;;;;23.73;12.67;;;;;;;4.48;78.38;102793.50;7397896;19;20398;-51
2022/03/21 01:57:19;;;;;;;27.63;14.17;;;;;;;4.52;81.79;102806.75;7398389;19;20391;-51
2022/03/21 01:59:52;;;;;;;19.10;11.10;;;;;;;4.41;79.28;102802.25;7392165;19;20387;-55
2022/03/21 02:02:21;;;;;;;30.87;17.17;;;;;;;4.54;83.51;102801.78;7399020;19;20399;-52
2022/03/21 02:04:51;;;;;;;21.20;11.30;;;;;;;4.52;80.78;102804.19;7394026;19;20807;-53
2022/03/21 02:07:21;;;;;;;27.60;12.63;;;;;;;4.36;79.77;102800.88;7398505;19;20397;-52
2022/03/21 02:09:50;;;;;;;21.80;12.97;;;;;;;4.30;81.08;102802.06;7396692;19;20396;-55
2022/03/21 02:12:20;;;;;;;21.83;11.37;;;;;;;4.33;80.27;102806.59;7397268;19;21002;-51
2022/03/21 02:14:52;;;;;;;23.40;11.73;;;;;;;4.31;79.87;102793.63;7393919;19;20412;-54
2022/03/21 02:17:24;;;;;;;21.47;11.30;;;;;;;4.35;81.92;102793.97;7398198;19;20383;-53
2022/03/21 02:19:53;;;;;;;22.20;12.77;;;;;;;4.20;80.27;102799.31;7389938;19;20384;-55
2022/03/21 02:22:30;;;;;;;23.50;13.60;;;;;;;4.28;81.23;102797.53;7397673;19;20720;-56
2022/03/21 02:25:05;;;;;;;25.43;13.13;;;;;;;4.14;80.66;102797.06;7388792;19;20398;-53
2022/03/21 02:27:38;;;;;;;23.70;11.80;;;;;;;4.10;81.13;102794.94;7397782;19;20450;-56
2022/03/21 02:30:09;;;;;;;20.87;11.60;;;;;;;4.20;81.69;102778.88;7391689;19;20407;-52
2022/03/21 02:32:38;;;;;;;25.10;11.60;;;;;;;4.18;82.29;102775.28;7400519;19;20793;-55
2022/03/21 02:35:12;;;;;;;24.77;11.00;;;;;;;4.14;81.85;102780.81;7391626;19;20462;-54
2022/03/21 02:37:43;;;;;;;20.50;11.27;;;;;;;4.05;82.13;102773.13;7397753;19;20753;-52
2022/03/21 02:40:13;;;;;;;20.67;11.47;;;;;;;3.97;83.61;102779.13;7392702;19;20417;-49
2022/03/21 02:42:45;;;;;;;20.70;11.67;;;;;;;3.99;83.17;102780.22;7389996;19;20422;-53
2022/03/21 02:45:15;;;;;;;19.47;10.37;;;;;;;3.82;83.08;102776.84;7389961;19;20411;-53
2022/03/21 02:47:45;;;;;;;21.20;10.50;;;;;;;3.79;83.58;102786.72;7397386;19;20384;-50
2022/03/21 02:50:15;;;;;;;22.60;11.13;;;;;;;3.85;84.26;102789.91;7391677;19;20400;-52
2022/03/21 02:52:47;;;;;;;19.70;10.50;;;;;;;3.85;83.66;102783.91;7396606;19;20371;-52
2022/03/21 02:55:17;;;;;;;23.20;11.10;;;;;;;3.78;84.16;102779.81;7390980;19;20387;-55
2022/03/21 02:57:49;;;;;;;18.63;10.20;;;;;;;3.79;85.51;102784.16;7397036;19;20788;-52
2022/03/21 03:00:19;;;;;;;21.33;11.60;;;;;;;3.79;85.08;102779.06;7393216;19;20442;-47
2022/03/21 03:02:48;;;;;;;19.90;10.87;;;;;;;3.80;85.02;102774.88;7396673;19;20387;-52
2022/03/21 03:05:18;;;;;;;22.87;12.00;;;;;;;3.84;85.40;102783.00;7390684;19;20410;-52
2022/03/21 03:07:47;;;;;;;17.83;10.73;;;;;;;3.67;84.73;102782.91;7396621;19;20402;-52
2022/03/21 03:10:16;;;;;;;20.77;10.83;;;;;;;3.63;85.37;102782.63;7388605;19;20398;-54
2022/03/21 03:12:48;;;;;;;18.87;10.93;;;;;;;3.70;85.86;102783.25;7395841;19;20398;-54
2022/03/21 03:15:18;;;;;;;36.80;16.60;;;;;;;3.71;86.24;102785.97;7387884;19;20406;-50
2022/03/21 03:17:47;;;;;;;18.03;10.33;;;;;;;3.73;86.94;102789.56;7396443;19;20388;-54
2022/03/21 03:20:17;;;;;;;20.87;11.90;;;;;;;3.73;86.55;102791.19;7390314;19;20394;-50
2022/03/21 03:22:47;;;;;;;20.10;10.97;;;;;;;3.71;86.26;102785.97;7395972;19;20393;-53
2022/03/21 03:25:17;;;;;;;22.20;11.00;;;;;;;3.75;88.02;102785.50;7388643;19;20423;-52
2022/03/21 03:27:49;;;;;;;20.53;11.63;;;;;;;3.57;87.10;102782.00;7396020;19;20458;-54
2022/03/21 03:30:19;;;;;;;20.60;10.43;;;;;;;3.48;87.80;102779.38;7389227;19;20455;-50
2022/03/21 03:32:50;;;;;;;22.73;11.50;;;;;;;3.45;88.95;102781.66;7400008;19;20398;-52
2022/03/21 03:35:21;;;;;;;23.80;11.00;;;;;;;3.47;88.40;102779.22;7390068;19;20430;-52
2022/03/21 03:37:50;;;;;;;20.03;10.40;;;;;;;3.52;88.60;102790.81;7395704;19;20407;-53
2022/03/21 03:40:21;;;;;;;20.13;10.80;;;;;;;3.58;90.28;102794.00;7390600;19;20419;-51
2022/03/21 03:42:53;;;;;;;21.13;11.03;;;;;;;3.70;89.19;102793.47;7395550;19;20737;-54
2022/03/21 03:45:23;;;;;;;31.87;15.87;;;;;;;3.63;88.98;102797.94;7389600;19;20419;-51
2022/03/21 03:47:52;;;;;;;30.53;16.60;;;;;;;3.55;88.84;102798.81;7395120;19;20387;-50
2022/03/21 03:50:22;;;;;;;20.33;10.63;;;;;;;3.55;88.67;102778.38;7390490;19;20743;-55
2022/03/21 03:52:51;;;;;;;26.50;13.93;;;;;;;3.59;90.46;102777.94;7395197;19;20384;-52
2022/03/21 03:55:21;;;;;;;21.37;11.53;;;;;;;3.60;90.75;102776.28;7390367;19;20474;-53
2022/03/21 03:57:53;;;;;;;22.33;10.40;;;;;;;3.53;91.08;102791.72;7394908;19;20383;-53
2022/03/21 04:00:22;;;;;;;21.53;10.20;;;;;;;3.50;92.55;102795.75;7391694;19;20411;-52
2022/03/21 04:05:34;;;;;;;22.63;11.60;;;;;;;3.51;90.70;102804.31;7387088;19;20473;-53
2022/03/21 04:08:03;;;;;;;25.43;10.73;;;;;;;3.38;90.28;102802.13;7395673;19;20411;-51
2022/03/21 04:10:33;;;;;;;23.20;10.90;;;;;;;3.26;90.11;102799.22;7389042;19;20494;-49
2022/03/21 04:13:05;;;;;;;22.37;12.30;;;;;;;3.25;92.19;102812.75;7394447;19;20363;-49
2022/03/21 04:15:35;;;;;;;22.73;11.10;;;;;;;3.32;90.77;102806.59;7389187;19;20925;-52
2022/03/21 04:18:05;;;;;;;19.03;10.80;;;;;;;3.20;90.41;102809.72;7393685;19;20408;-52
2022/03/21 04:20:36;;;;;;;22.27;11.30;;;;;;;3.13;91.51;102797.03;7390443;19;20742;-52
2022/03/21 04:23:07;;;;;;;19.93;10.90;;;;;;;3.15;91.12;102799.75;7394355;19;20396;-51
2022/03/21 04:25:36;;;;;;;20.97;10.07;;;;;;;3.21;92.10;102800.38;7389381;19;20413;-52
2022/03/21 04:28:12;;;;;;;23.60;12.17;;;;;;;3.14;91.36;102803.06;7393129;19;20383;-50
2022/03/21 04:30:42;;;;;;;20.53;11.30;;;;;;;3.20;92.77;102808.78;7388510;19;20414;-49
2022/03/21 04:33:12;;;;;;;17.97;10.17;;;;;;;3.19;92.67;102812.97;7394234;19;20392;-53
2022/03/21 04:35:42;;;;;;;22.20;11.60;;;;;;;3.23;92.63;102798.94;7389105;19;20407;-53
2022/03/21 04:38:16;;;;;;;25.97;11.40;;;;;;;3.13;92.19;102811.44;7393021;19;20384;-55
2022/03/21 04:40:48;;;;;;;19.30;10.90;;;;;;;3.13;91.65;102811.44;7387759;19;20761;-53
2022/03/21 04:43:21;;;;;;;23.20;12.13;;;;;;;3.02;92.22;102818.88;7392975;19;20390;-52
2022/03/21 04:45:51;;;;;;;23.40;12.10;;;;;;;3.06;92.70;102823.56;7386891;19;20493;-55
2022/03/21 04:48:21;;;;;;;24.77;12.50;;;;;;;3.06;94.21;102825.19;7392720;19;20367;-54
2022/03/21 04:50:51;;;;;;;19.13;11.00;;;;;;;2.99;93.24;102826.22;7383469;19;20431;-52
2022/03/21 04:53:20;;;;;;;20.50;11.73;;;;;;;2.95;93.63;102824.06;7393019;19;20387;-51
2022/03/21 04:55:51;;;;;;;20.50;10.33;;;;;;;2.79;93.22;102824.09;7389234;19;20402;-51
2022/03/21 04:58:23;;;;;;;23.83;12.30;;;;;;;2.92;nan;102818.66;7392566;19;20384;-52
2022/03/21 05:00:53;;;;;;;18.70;10.87;;;;;;;2.93;93.94;102825.56;7386223;19;20421;-54
2022/03/21 05:03:23;;;;;;;20.13;10.93;;;;;;;2.86;94.55;102824.00;7392482;19;20742;-52
2022/03/21 05:05:53;;;;;;;20.13;11.07;;;;;;;3.01;95.33;102832.38;7387052;19;20407;-51
2022/03/21 05:08:23;;;;;;;20.27;11.63;;;;;;;2.90;95.22;102827.78;7396645;19;20406;-53
2022/03/21 05:10:52;;;;;;;27.13;10.90;;;;;;;2.97;95.32;102840.44;7383149;19;20431;-54
2022/03/21 05:13:25;;;;;;;35.93;18.07;;;;;;;2.93;97.16;102838.31;7392412;19;20881;-54
2022/03/21 05:15:55;;;;;;;25.43;11.27;;;;;;;2.97;96.47;102837.88;7394069;19;20502;-51
2022/03/21 05:18:25;;;;;;;18.20;10.70;;;;;;;3.00;95.22;102838.22;7399579;19;20371;-53
2022/03/21 05:20:55;;;;;;;23.87;11.97;;;;;;;2.73;95.16;102834.53;7394294;19;20417;-48
2022/03/21 05:31:33;;;;;;;23.73;11.50;;;;;;;2.66;95.77;102832.09;7393133;19;20422;-53
2022/03/21 05:36:44;;;;;;;25.30;11.37;;;;;;;2.62;95.58;102829.94;7390901;19;20402;-50
2022/03/21 05:39:14;;;;;;;21.50;11.73;;;;;;;2.67;97.65;102819.47;7398561;19;20367;-50
2022/03/21 05:41:43;;;;;;;20.70;11.00;;;;;;;2.61;96.95;102828.13;7394921;19;20454;-56
2022/03/21 05:44:15;;;;;;;18.60;11.20;;;;;;;2.55;98.12;102831.81;7398979;19;20388;-55
2022/03/21 05:46:45;;;;;;;17.67;10.73;;;;;;;2.70;98.37;102834.19;7393838;19;20402;-56
2022/03/21 05:49:12;;;;;;;21.50;10.40;;;;;;;2.66;97.46;102829.53;7398183;19;20381;-53
2022/03/21 05:51:43;;;;;;;24.13;11.20;;;;;;;2.56;97.70;102831.09;7393644;19;20509;-54
2022/03/21 05:54:14;;;;;;;25.30;11.80;;;;;;;2.63;98.68;102836.84;7398569;19;20910;-54
2022/03/21 05:56:47;;;;;;;27.90;12.10;;;;;;;2.60;97.68;102841.63;7393253;19;20422;-51
2022/03/21 06:02:01;;;;;;;23.47;11.93;;;;;;;2.66;98.32;102839.72;7398925;19;20445;-50
2022/03/21 06:04:30;;;;;;;22.13;11.23;;;;;;;2.64;98.48;102844.66;7398006;19;20403;-54
2022/03/21 06:07:00;;;;;;;23.57;12.37;;;;;;;2.59;98.35;102839.78;7393500;19;20414;-51
2022/03/21 06:09:34;;;;;;;19.30;10.00;;;;;;;2.65;98.51;102837.91;7397666;19;20363;-55
2022/03/21 06:12:03;;;;;;;28.63;14.77;;;;;;;2.65;99.56;102848.09;7395019;19;20406;-56
2022/03/21 06:14:35;;;;;;;21.53;11.37;;;;;;;2.70;98.73;102855.50;7397636;19;20384;-56
2022/03/21 06:17:06;;;;;;;20.93;11.60;;;;;;;2.62;98.06;102855.44;7397247;19;20419;-50
2022/03/21 06:19:35;;;;;;;19.83;10.40;;;;;;;2.76;97.57;102857.81;7393403;19;20380;-60
2022/03/21 06:22:05;;;;;;;22.87;11.30;;;;;;;2.80;99.49;102857.41;7397342;19;20930;-51
2022/03/21 06:24:34;;;;;;;23.50;12.20;;;;;;;2.82;97.64;102861.00;7398135;19;20390;-50
2022/03/21 06:27:04;;;;;;;21.30;11.60;;;;;;;2.88;98.35;102865.88;7395676;19;20410;-53
2022/03/21 06:29:39;;;;;;;19.80;11.70;;;;;;;3.03;99.16;102870.81;7396902;19;20396;-55
2022/03/21 06:32:09;;;;;;;23.23;11.40;;;;;;;3.13;98.84;102867.56;7395480;19;20506;-50
2022/03/21 06:34:39;;;;;;;23.83;12.20;;;;;;;3.01;96.52;102870.63;7393743;19;20422;-50
2022/03/21 06:37:09;;;;;;;28.80;12.67;;;;;;;3.10;96.65;102875.81;7396626;19;20367;-51
2022/03/21 06:39:39;;;;;;;23.83;13.00;;;;;;;2.95;95.81;102876.00;7388983;19;20379;-54
2022/03/21 06:42:11;;;;;;;21.03;11.70;;;;;;;2.83;95.83;102878.13;7396611;19;20373;-53
2022/03/21 06:44:43;;;;;;;23.83;12.30;;;;;;;2.90;97.26;102883.88;7391424;19;20394;-54
2022/03/21 06:47:13;;;;;;;24.77;12.23;;;;;;;3.01;96.82;102885.00;7396021;19;20882;-51
2022/03/21 06:49:42;;;;;;;22.03;11.70;;;;;;;3.12;97.83;102888.72;7391506;19;20394;-50
2022/03/21 06:52:12;;;;;;;22.47;12.27;;;;;;;3.22;95.91;102886.38;7395097;19;20388;-53
2022/03/21 06:54:42;;;;;;;21.53;11.30;;;;;;;3.25;95.22;102894.38;7391430;19;20747;-52
2022/03/21 06:57:12;;;;;;;22.97;11.93;;;;;;;3.17;95.46;102892.69;7400056;19;20379;-55
2022/03/21 06:59:45;;;;;;;23.83;12.47;;;;;;;3.31;96.58;102889.94;7392357;19;20383;-52
2022/03/21 07:02:16;;;;;;;22.60;11.63;;;;;;;3.29;96.34;102906.75;7396186;19;20371;-53
2022/03/21 07:04:46;;;;;;;21.37;11.60;;;;;;;3.49;94.69;102901.16;7392338;19;20768;-52
2022/03/21 07:07:15;;;;;;;19.30;10.93;;;;;;;3.50;94.28;102900.41;7395867;19;21022;-54
2022/03/21 07:09:45;;;;;;;20.93;11.90;;;;;;;3.44;93.69;102898.88;7387305;19;20367;-53
2022/03/21 07:12:14;;;;;;;20.63;10.87;;;;;;;3.45;93.14;102903.25;7397614;19;20400;-55
2022/03/21 07:14:48;;;;;;;21.03;11.60;;;;;;;3.56;93.77;102892.50;7386688;19;20399;-53
2022/03/21 07:17:20;;;;;;;26.77;12.27;;;;;;;3.57;92.61;102889.22;7395531;19;20394;-51
2022/03/21 07:19:50;;;;;;;23.67;11.80;;;;;;;3.45;92.22;102893.94;7388348;19;20390;-53
2022/03/21 07:22:20;;;;;;;22.83;12.27;;;;;;;3.54;92.70;102881.22;7399496;19;20448;-52
2022/03/21 07:24:49;;;;;;;29.13;12.27;;;;;;;3.57;92.07;102873.88;7382127;19;20734;-54
2022/03/21 07:27:20;;;;;;;24.57;12.10;;;;;;;3.68;92.68;102880.09;7396584;19;20363;-53
2022/03/21 07:29:52;;;;;;;23.60;12.50;;;;;;;4.05;91.82;102890.66;7390999;19;20363;-53
2022/03/21 07:32:21;;;;;;;32.63;16.70;;;;;;;4.41;91.31;102887.47;7394597;19;20388;-48
2022/03/21 07:34:51;;;;;;;21.33;12.17;;;;;;;4.01;88.69;102880.88;7386148;19;20411;-54
2022/03/21 07:37:20;;;;;;;22.47;12.40;;;;;;;3.95;88.54;102877.69;7396875;19;20928;-50
2022/03/21 07:39:50;;;;;;;28.10;15.43;;;;;;;4.04;88.68;102886.28;7389093;19;20375;-55
2022/03/21 07:42:19;;;;;;;23.03;11.57;;;;;;;4.22;88.06;102879.63;7394947;19;20388;-53
2022/03/21 07:47:34;;;;;;;21.63;11.77;;;;;;;4.16;87.22;102879.88;7394962;19;20479;-54
2022/03/21 07:50:06;;;;;;;21.20;12.83;;;;;;;4.21;86.94;102882.94;7389244;19;20490;-51
2022/03/21 07:52:35;;;;;;;28.93;10.97;;;;;;;4.21;86.50;102871.78;7394873;19;20397;-51
2022/03/21 07:55:05;;;;;;;21.20;11.63;;;;;;;4.27;86.22;102877.53;7384283;19;20920;-53
2022/03/21 07:57:35;;;;;;;22.60;11.57;;;;;;;4.37;87.05;102887.94;7394093;19;20367;-51
2022/03/21 08:00:09;;;;;;;22.60;11.83;;;;;;;4.53;86.92;102894.59;7391276;19;20839;-51
2022/03/21 08:02:41;;;;;;;24.07;11.73;;;;;;;4.59;85.31;102892.66;7394643;19;20370;-51
2022/03/21 08:05:13;;;;;;;21.97;12.00;;;;;;;4.68;85.29;102898.66;7388381;19;20422;-52
2022/03/21 08:07:43;;;;;;;24.40;12.30;;;;;;;4.76;85.29;102889.22;7394317;19;20469;-49
2022/03/21 08:10:24;;;;;;;23.60;12.60;;;;;;;4.84;85.06;102900.22;7421986;19;20569;-51
2022/03/21 08:12:55;;;;;;;24.73;12.60;;;;;;;4.87;84.95;102897.94;7429038;19;20386;-53
2022/03/21 08:15:26;;;;;;;21.60;12.63;;;;;;;5.01;85.36;102894.22;7419479;19;20418;-50
2022/03/21 08:17:57;;;;;;;19.40;11.13;;;;;;;5.12;84.89;102903.84;7426496;19;20890;-54
2022/03/21 08:20:33;;;;;;;21.00;11.70;;;;;;;5.25;84.47;102895.72;7422845;19;20413;-53
2022/03/21 08:23:05;;;;;;;20.43;12.00;;;;;;;5.35;83.89;102899.19;7428719;19;20382;-51
2022/03/21 08:25:38;;;;;;;24.07;13.30;;;;;;;5.46;82.36;102896.00;7420556;19;20413;-49
2022/03/21 08:28:10;;;;;;;26.13;13.27;;;;;;;5.46;81.00;102890.88;7429343;19;20387;-53
2022/03/21 08:30:40;;;;;;;22.80;12.37;;;;;;;5.51;81.36;102884.56;7424143;19;20418;-51
2022/03/21 08:33:11;;;;;;;22.93;12.53;;;;;;;5.62;80.13;102884.66;7428394;19;20466;-49
2022/03/21 08:35:42;;;;;;;22.27;11.43;;;;;;;5.71;80.94;102889.78;7421484;19;20406;-51
2022/03/21 08:38:12;;;;;;;23.67;11.97;;;;;;;5.74;78.40;102883.28;7427523;19;20383;-53
2022/03/21 08:40:44;;;;;;;25.30;12.83;;;;;;;5.86;79.09;102890.34;7424764;19;20418;-53
2022/03/21 08:43:14;;;;;;;20.77;11.90;;;;;;;6.02;78.83;102879.88;7428228;19;20483;-52
2022/03/21 08:45:44;;;;;;;24.00;11.30;;;;;;;6.21;78.77;102870.63;7422153;19;20422;-54
2022/03/21 08:48:13;;;;;;;24.93;12.67;;;;;;;6.23;76.36;102870.78;7426772;19;20388;-54
2022/03/21 08:50:43;;;;;;;20.93;12.57;;;;;;;6.38;76.52;102878.09;7420262;19;20431;-56
2022/03/21 08:53:12;;;;;;;21.07;12.10;;;;;;;6.63;77.99;102876.13;7427676;19;20734;-53
2022/03/21 08:55:44;;;;;;;20.00;10.80;;;;;;;6.56;75.58;102859.25;7421628;19;20415;-50
2022/03/21 08:58:14;;;;;;;21.03;11.10;;;;;;;6.48;74.28;102865.38;7426832;19;20385;-54
2022/03/21 09:00:43;;;;;;;23.07;11.87;;;;;;;6.56;75.49;102864.41;7424563;19;20451;-51
2022/03/21 09:03:13;;;;;;;21.27;11.40;;;;;;;6.64;73.34;102867.69;7427203;19;20394;-51
2022/03/21 09:05:43;;;;;;;22.00;12.37;;;;;;;6.76;74.31;102865.31;7419442;19;20416;-53
2022/03/21 09:08:13;;;;;;;21.30;12.00;;;;;;;6.85;73.40;102866.16;7426350;19;20404;-54
2022/03/21 09:10:45;;;;;;;20.27;11.17;;;;;;;6.87;72.35;102864.63;7421511;19;20757;-55
2022/03/21 09:13:14;;;;;;;21.00;12.20;;;;;;;6.99;72.34;102864.81;7427209;19;20400;-53
2022/03/21 09:15:44;;;;;;;22.20;11.67;;;;;;;7.01;71.90;102862.41;7420121;19;20408;-56
2022/03/21 09:18:14;;;;;;;21.33;11.67;;;;;;;7.11;72.03;102859.91;7428764;19;20393;-51
2022/03/21 09:20:43;;;;;;;21.00;12.07;;;;;;;7.12;70.86;102851.44;7401565;19;20421;-52
2022/03/21 09:23:13;;;;;;;22.33;11.30;;;;;;;7.18;69.93;102857.91;7396513;19;20529;-48
2022/03/21 09:25:45;;;;;;;22.30;12.20;;;;;;;7.21;69.57;102860.72;7395452;19;20421;-54
2022/03/21 09:28:15;;;;;;;23.50;13.03;;;;;;;7.41;69.95;102865.97;7401268;19;20400;-53
2022/03/21 09:30:44;;;;;;;20.70;11.97;;;;;;;7.56;71.09;102855.25;7394415;19;20454;-56
2022/03/21 09:33:15;;;;;;;22.50;12.27;;;;;;;7.72;69.82;102861.72;7397659;19;20386;-51
2022/03/21 09:35:47;;;;;;;24.03;13.40;;;;;;;7.87;69.26;102852.78;7394437;19;20458;-54
2022/03/21 09:38:17;;;;;;;21.40;11.83;;;;;;;7.74;67.14;102860.19;7396420;19;20397;-49
2022/03/21 09:40:49;;;;;;;31.03;15.50;;;;;;;7.88;68.31;102854.56;7392646;19;20754;-54
2022/03/21 09:43:18;;;;;;;22.10;11.73;;;;;;;7.96;67.04;102852.69;7397145;19;20802;-52
2022/03/21 09:45:48;;;;;;;24.07;12.10;;;;;;;8.12;66.35;102854.88;7391425;19;20407;-53
2022/03/21 09:48:19;;;;;;;23.10;12.67;;;;;;;8.17;66.67;102857.84;7396012;19;20399;-52
2022/03/21 09:50:51;;;;;;;22.23;12.77;;;;;;;8.31;65.48;102861.59;7391774;19;20962;-53
2022/03/21 09:53:21;;;;;;;22.67;13.20;;;;;;;8.11;63.63;102853.09;7396863;19;20907;-52
2022/03/21 09:55:54;;;;;;;22.47;12.20;;;;;;;8.32;64.22;102850.53;7389783;19;20419;-55
2022/03/21 09:58:23;;;;;;;20.50;11.67;;;;;;;8.29;64.56;102857.97;7395943;19;20394;-50
2022/03/21 10:00:53;;;;;;;58.63;30.53;;;;;;;8.75;64.79;102849.00;7391349;19;20805;-50
2022/03/21 10:03:23;;;;;;;33.00;17.33;;;;;;;8.88;64.40;102850.03;7396513;19;20734;-51
2022/03/21 10:05:53;;;;;;;31.40;17.80;;;;;;;8.99;64.17;102846.66;7390887;19;20414;-53
2022/03/21 10:08:24;;;;;;;19.67;12.63;;;;;;;8.86;61.49;102849.88;7395542;19;20403;-56
2022/03/21 10:11:01;;;;;;;20.97;12.97;;;;;;;8.99;62.31;102848.31;7391450;19;20490;-55
2022/03/21 10:13:32;;;;;;;24.30;13.60;;;;;;;8.90;62.11;102851.03;7396108;19;20383;-53
2022/03/21 10:16:10;;;;;;;21.53;12.50;;;;;;;8.95;62.55;102839.44;7385458;19;20439;-52
2022/03/21 10:18:41;;;;;;;27.20;14.03;;;;;;;9.19;63.66;102839.66;7394954;19;20407;-52
2022/03/21 10:21:15;;;;;;;21.77;12.27;;;;;;;9.32;62.22;102832.13;7389903;19;20419;-51
2022/03/21 10:23:46;;;;;;;24.77;13.57;;;;;;;9.21;60.35;102845.81;7395976;19;20375;-55
2022/03/21 10:26:32;;;;;;;24.97;12.73;;;;;;;9.30;59.75;102844.00;7389001;19;20407;-51
2022/03/21 10:29:04;;;;;;;22.07;12.93;;;;;;;9.42;60.33;102838.91;7395173;19;20388;-52
2022/03/21 10:31:38;;;;;;;22.77;12.73;;;;;;;9.55;59.28;102833.03;7391614;19;20451;-53
2022/03/21 10:34:09;;;;;;;20.20;12.50;;;;;;;9.51;59.13;102831.03;7395036;19;20379;-50
2022/03/21 10:36:59;;;;;;;20.80;13.30;;;;;;;9.48;58.58;102838.50;7390756;19;20953;-51
2022/03/21 10:39:29;;;;;;;21.80;13.50;;;;;;;9.67;58.21;102832.22;7394852;19;20911;-52
2022/03/21 10:42:03;;;;;;;20.03;13.23;;;;;;;9.86;57.92;102832.88;7390403;19;20414;-55
2022/03/21 10:44:33;;;;;;;20.37;12.90;;;;;;;9.97;57.81;102835.41;7395042;19;20419;-51
2022/03/21 10:47:05;;;;;;;22.20;12.87;;;;;;;10.05;57.19;102833.41;7394150;19;20407;-52
2022/03/21 10:49:38;;;;;;;23.60;13.60;;;;;;;10.17;57.68;102836.03;7391686;19;20776;-58
2022/03/21 10:52:09;;;;;;;21.10;12.93;;;;;;;10.42;58.26;102837.91;7396707;19;20403;-58
2022/03/21 10:54:48;;;;;;;22.63;14.03;;;;;;;10.37;56.56;102835.88;7387300;19;20957;-53
2022/03/21 10:57:34;;;;;;;22.97;14.10;;;;;;;10.43;58.02;102832.00;7394437;19;20379;-56
2022/03/21 11:00:17;;;;;;;21.40;13.60;;;;;;;10.53;56.93;102837.06;7389500;19;20428;-53
2022/03/21 11:02:53;;;;;;;26.90;14.10;;;;;;;10.35;55.01;102832.28;7394455;19;20426;-55
2022/03/21 11:05:24;;;;;;;22.73;13.40;;;;;;;10.33;56.38;102831.28;7385575;19;20493;-53
2022/03/21 11:07:54;;;;;;;23.77;12.60;;;;;;;10.51;56.14;102831.78;7394503;19;20467;-53
2022/03/21 11:10:24;;;;;;;21.20;12.53;;;;;;;10.45;55.15;102835.59;7390454;19;20768;-56
2022/03/21 11:12:57;;;;;;;23.37;12.90;;;;;;;10.59;54.69;102829.78;7394457;19;20395;-52
2022/03/21 11:15:27;;;;;;;25.40;13.63;;;;;;;10.65;54.62;102831.91;7388164;19;21067;-54
2022/03/21 11:17:57;;;;;;;24.07;13.33;;;;;;;10.60;54.84;102833.25;7393662;19;20394;-55
2022/03/21 11:20:28;;;;;;;20.77;10.67;;;;;;;10.24;54.09;102841.78;7386873;19;20483;-54
2022/03/21 11:22:58;;;;;;;23.00;14.33;;;;;;;10.57;55.04;102836.53;7394073;19;20391;-53
2022/03/21 11:25:32;;;;;;;22.73;13.50;;;;;;;10.70;54.53;102837.41;7389695;19;20823;-52
2022/03/21 11:28:30;;;;;;;22.13;12.90;;;;;;;10.81;54.63;102841.69;7393282;19;20380;-51
2022/03/21 11:31:10;;;;;;;20.87;12.50;;;;;;;10.98;53.51;102826.56;7389900;19;20991;-53
2022/03/21 11:33:43;;;;;;;20.97;13.03;;;;;;;10.90;55.08;102834.66;7394100;19;20391;-53
2022/03/21 11:36:14;;;;;;;27.93;13.80;;;;;;;11.10;54.88;102824.88;7386860;19;20955;-55
2022/03/21 11:38:49;;;;;;;21.00;12.67;;;;;;;11.24;54.80;102823.28;7393698;19;20386;-54
2022/03/21 11:41:21;;;;;;;22.37;12.17;;;;;;;11.23;53.60;102820.59;7388259;19;20507;-55
2022/03/21 11:44:14;;;;;;;21.10;12.80;;;;;;;11.50;53.85;102816.50;7393141;19;20396;-49
2022/03/21 11:46:46;;;;;;;22.03;13.63;;;;;;;11.54;52.37;102817.63;7386801;19;20970;-53
2022/03/21 11:49:52;;;;;;;23.20;13.13;;;;;;;11.45;51.44;102812.69;7392166;19;20388;-56
2022/03/21 11:52:23;;;;;;;20.60;12.33;;;;;;;11.53;52.29;102814.13;7396574;19;20453;-54
2022/03/21 11:54:53;;;;;;;19.93;12.80;;;;;;;11.63;52.46;102813.06;7386888;19;20426;-54
2022/03/21 11:57:33;;;;;;;20.90;13.30;;;;;;;11.68;51.06;102810.81;7397368;19;20397;-53